Time;durP1;ratioP1;P1;durP2;ratioP2;P2;SDS_P1;SDS_P2;PMS_P1;PMS_P2;Temp;Humidity;BMP_temperature;BMP_pressure;BME280_temperature;BME280_humidity;BME280_pressure;Samples;Min_cycle;Max_cycle;Signal;HPM_P1;HPM_P2
2021/05/17 00:02:23;;;;;;;7.20;4.97;;;;;11.50;99975.00;;;;4951918;28;20069;-78
2021/05/17 00:04:50;;;;;;;5.97;4.20;;;12.30;79.90;11.50;99979.00;;;;4952877;28;20049;-77
2021/05/17 00:07:16;;;;;;;11.05;5.03;;;12.30;81.00;11.50;99976.00;;;;4937538;28;20042;-76
2021/05/17 00:09:43;;;;;;;10.60;4.80;;;12.30;80.30;11.50;99982.00;;;;4949345;28;20043;-77
2021/05/17 00:12:10;;;;;;;;;;;12.30;81.50;11.40;99977.00;;;;4954954;28;20352;-77
2021/05/17 00:14:36;;;;;;;9.27;4.72;;;12.30;80.30;11.40;99980.00;;;;4934559;28;19918;-77
2021/05/17 00:17:04;;;;;;;8.70;4.95;;;12.30;80.30;11.50;99978.00;;;;4935183;28;20086;-77
2021/05/17 00:19:31;;;;;;;6.22;5.00;;;12.30;80.50;11.50;99982.00;;;;4932820;28;20047;-76
2021/05/17 00:21:57;;;;;;;8.75;5.45;;;12.30;80.60;11.50;99982.00;;;;4972377;28;20720;-77
2021/05/17 00:24:23;;;;;;;7.28;4.88;;;12.30;80.60;11.50;99975.00;;;;4943376;28;20667;-77
2021/05/17 00:26:50;;;;;;;10.02;5.80;;;12.30;80.90;11.50;99978.00;;;;4952415;28;20046;-77
2021/05/17 00:29:16;;;;;;;7.83;5.30;;;12.30;81.30;11.40;99972.00;;;;4937594;28;20062;-77
2021/05/17 00:31:44;;;;;;;8.60;5.47;;;12.20;81.80;11.40;99976.00;;;;4944893;28;20134;-78
2021/05/17 00:34:10;;;;;;;11.75;5.82;;;12.20;81.90;11.40;99982.00;;;;4957299;28;20046;-78
2021/05/17 00:36:38;;;;;;;10.13;5.78;;;12.20;81.40;11.40;99981.00;;;;4959183;28;20042;-78
2021/05/17 00:39:11;;;;;;;7.47;5.50;;;12.20;81.50;11.30;99968.00;;;;4939770;28;20049;-78
2021/05/17 00:41:39;;;;;;;6.57;4.90;;;12.20;81.50;11.40;99977.00;;;;4937978;28;20078;-78
2021/05/17 00:44:06;;;;;;;8.70;5.43;;;12.40;81.90;11.30;99970.00;;;;4960331;28;20047;-78
2021/05/17 00:46:33;;;;;;;8.00;4.80;;;12.10;81.90;11.30;99970.00;;;;4922675;28;20508;-79
2021/05/17 00:49:00;;;;;;;6.15;5.00;;;12.10;84.10;11.30;99968.00;;;;4905241;28;20054;-78
2021/05/17 00:51:27;;;;;;;7.35;4.35;;;12.10;82.40;11.20;99970.00;;;;4922499;29;20137;-79
2021/05/17 00:53:54;;;;;;;8.90;4.88;;;12.00;82.50;11.20;99968.00;;;;4946944;28;20042;-79
2021/05/17 00:56:21;;;;;;;6.47;4.57;;;12.10;82.40;11.20;99962.00;;;;4915375;28;20050;-78
2021/05/17 00:58:49;;;;;;;7.82;4.50;;;12.10;82.50;11.20;99965.00;;;;4939017;28;20059;-78
2021/05/17 01:01:17;;;;;;;6.47;4.68;;;12.00;82.40;11.20;99965.00;;;;4954961;28;20045;-79
2021/05/17 01:03:44;;;;;;;5.45;4.50;;;12.00;83.00;11.20;99967.00;;;;4942848;28;20046;-79
2021/05/17 01:06:36;;;;;;;5.75;4.20;;;12.00;82.40;11.20;99968.00;;;;4942275;28;20572;-79
2021/05/17 01:09:05;;;;;;;5.47;4.28;;;12.00;83.20;11.10;99968.00;;;;4936884;28;20122;-78
2021/05/17 01:11:35;;;;;;;5.00;4.30;;;11.90;82.50;11.10;99960.00;;;;4911738;29;20417;-78
2021/05/17 01:14:07;;;;;;;7.68;3.92;;;11.90;83.50;11.10;99961.00;;;;4939915;28;20081;-79
2021/05/17 01:16:35;;;;;;;7.63;4.20;;;11.90;83.50;11.10;99956.00;;;;4944262;28;20156;-78
2021/05/17 01:19:12;;;;;;;9.00;5.38;;;11.90;83.10;11.10;99963.00;;;;4960452;28;20054;-78
2021/05/17 01:21:42;;;;;;;6.45;4.15;;;11.90;83.00;11.10;99951.00;;;;4957811;28;20137;-78
2021/05/17 01:24:09;;;;;;;6.80;4.32;;;11.90;83.30;11.10;99960.00;;;;4958189;28;20046;-78
2021/05/17 01:26:37;;;;;;;5.28;4.28;;;11.90;83.30;11.10;99951.00;;;;4944481;28;20079;-79
2021/05/17 01:29:06;;;;;;;6.35;4.32;;;;;11.10;99956.00;;;;4973694;28;20116;-78
2021/05/17 01:31:37;;;;;;;6.00;4.10;;;11.90;82.90;11.00;99950.00;;;;4949143;28;20532;-78
2021/05/17 01:34:06;;;;;;;7.15;4.70;;;;;11.10;99962.00;;;;4947205;28;20054;-78
2021/05/17 01:36:36;;;;;;;5.82;4.28;;;11.90;83.20;11.10;99957.00;;;;4951136;28;20543;-78
2021/05/17 01:39:04;;;;;;;9.95;5.10;;;11.80;83.30;11.00;99965.00;;;;4932545;28;20051;-78
2021/05/17 01:41:30;;;;;;;9.52;4.35;;;11.90;84.20;11.00;99961.00;;;;4907619;29;20358;-78
2021/05/17 01:43:58;;;;;;;6.38;4.38;;;11.80;84.30;11.00;99953.00;;;;4937800;28;20073;-78
2021/05/17 01:46:31;;;;;;;6.13;4.70;;;11.80;83.20;10.90;99949.00;;;;4944112;28;20528;-78
2021/05/17 01:49:01;;;;;;;6.03;4.40;;;11.70;83.60;10.90;99949.00;;;;4923372;28;20130;-78
2021/05/17 01:51:30;;;;;;;7.75;4.65;;;;;11.00;99952.00;;;;4940922;28;20058;-78
2021/05/17 01:53:59;;;;;;;7.28;4.72;;;11.80;83.90;10.90;99954.00;;;;4957748;28;20039;-78
2021/05/17 01:56:26;;;;;;;4.95;4.22;;;11.80;83.80;10.90;99949.00;;;;4927143;28;20050;-78
2021/05/17 01:58:56;;;;;;;8.90;5.30;;;11.70;84.10;10.90;99951.00;;;;4926480;28;20039;-78
2021/05/17 02:01:22;;;;;;;8.82;5.18;;;11.70;84.10;10.90;99947.00;;;;4948770;28;20507;-78
2021/05/17 02:03:51;;;;;;;9.02;5.28;;;;;10.80;99951.00;;;;4905423;28;20043;-78
2021/05/17 02:06:19;;;;;;;9.35;5.10;;;;;10.80;99950.00;;;;4948026;28;20064;-78
2021/05/17 02:08:48;;;;;;;6.95;5.07;;;;;10.70;99947.00;;;;4953163;28;20597;-78
2021/05/17 02:11:20;;;;;;;7.38;5.53;;;11.60;84.10;10.70;99952.00;;;;4939581;28;20047;-79
2021/05/17 02:13:53;;;;;;;;;;;11.60;85.00;10.60;99943.00;;;;4939989;28;20392;-78
2021/05/17 02:16:19;;;;;;;9.00;5.47;;;11.50;84.10;10.70;99955.00;;;;4950416;28;19925;-77
2021/05/17 02:18:48;;;;;;;8.20;6.30;;;11.50;84.60;10.70;99951.00;;;;4936960;28;20872;-77
2021/05/17 02:21:17;;;;;;;7.95;6.00;;;11.50;84.30;10.70;99956.00;;;;4936463;28;20050;-77
2021/05/17 02:23:44;;;;;;;9.00;5.95;;;11.50;84.60;10.70;99949.00;;;;4931904;28;20043;-76
2021/05/17 02:26:12;;;;;;;8.18;6.28;;;11.50;85.30;10.70;99958.00;;;;4948241;28;20142;-76
2021/05/17 02:28:42;;;;;;;10.48;6.47;;;11.50;85.50;10.70;99954.00;;;;4937912;28;20039;-77
2021/05/17 02:31:11;;;;;;;11.00;6.03;;;11.50;84.60;10.70;99941.00;;;;4954814;28;20051;-77
2021/05/17 02:33:39;;;;;;;11.10;6.20;;;11.50;84.50;10.70;99958.00;;;;4926812;28;20050;-77
2021/05/17 02:36:07;;;;;;;9.70;6.50;;;11.50;84.90;10.70;99951.00;;;;4937903;28;20134;-77
2021/05/17 02:38:34;;;;;;;10.02;6.80;;;11.50;84.70;10.70;99947.00;;;;4942598;28;20050;-77
2021/05/17 02:41:01;;;;;;;11.35;7.00;;;11.50;85.10;10.70;99957.00;;;;4934295;28;20051;-78
2021/05/17 02:43:29;;;;;;;9.43;6.38;;;11.50;85.00;10.70;99952.00;;;;4918647;29;20660;-79
2021/05/17 02:46:02;;;;;;;11.50;6.32;;;11.50;85.40;10.70;99958.00;;;;4904838;29;20310;-77
2021/05/17 02:48:32;;;;;;;11.80;6.57;;;11.50;85.90;10.70;99949.00;;;;4948237;28;20047;-78
2021/05/17 02:50:59;;;;;;;10.85;7.30;;;11.50;85.00;10.70;99954.00;;;;4938057;28;20050;-77
2021/05/17 02:53:37;;;;;;;10.20;6.70;;;;;10.70;99963.00;;;;4935845;28;20077;-78
2021/05/17 02:56:17;;;;;;;8.48;6.15;;;11.50;85.00;10.70;99963.00;;;;4947952;28;20134;-77
2021/05/17 02:58:58;;;;;;;11.52;7.35;;;11.60;85.40;10.70;99966.00;;;;4963508;28;20039;-77
2021/05/17 03:01:37;;;;;;;14.23;7.78;;;11.50;86.40;10.70;99960.00;;;;4935580;28;20678;-77
2021/05/17 03:04:16;;;;;;;10.32;7.93;;;11.50;85.40;10.70;99968.00;;;;4925490;28;20043;-77
2021/05/17 03:07:10;;;;;;;12.10;8.13;;;11.50;85.40;10.70;99966.00;;;;4948940;28;20142;-77
2021/05/17 03:09:44;;;;;;;13.57;7.53;;;11.50;85.60;10.70;99960.00;;;;4945997;28;20044;-77
2021/05/17 03:12:12;;;;;;;11.63;7.68;;;11.50;85.60;10.70;99971.00;;;;4921460;28;20051;-77
2021/05/17 03:14:42;;;;;;;14.50;8.77;;;11.50;85.60;10.70;99955.00;;;;4919602;29;20035;-77
2021/05/17 03:17:11;;;;;;;11.65;7.35;;;11.50;85.90;10.70;99953.00;;;;4939792;28;20619;-77
2021/05/17 03:19:40;;;;;;;13.18;7.75;;;11.50;86.90;10.70;99962.00;;;;4943905;28;20046;-77
2021/05/17 03:22:07;;;;;;;10.77;7.38;;;11.50;85.90;10.70;99953.00;;;;4956664;28;20035;-76
2021/05/17 03:24:39;;;;;;;10.27;6.78;;;11.50;86.00;10.60;99966.00;;;;4970396;28;20548;-77
2021/05/17 03:27:21;;;;;;;13.00;7.38;;;11.50;86.00;10.60;99960.00;;;;4937073;28;20054;-77
2021/05/17 03:29:49;;;;;;;13.82;7.25;;;11.50;86.20;10.70;99960.00;;;;4945111;28;20069;-77
2021/05/17 03:32:16;;;;;;;10.65;7.07;;;11.50;86.10;10.70;99968.00;;;;4945264;28;20054;-78
2021/05/17 03:34:42;;;;;;;8.90;6.22;;;11.50;86.30;10.60;99963.00;;;;4930296;28;20593;-78
2021/05/17 03:37:08;;;;;;;12.90;6.25;;;11.50;86.70;10.60;99960.00;;;;4930722;28;20093;-78
2021/05/17 03:39:34;;;;;;;10.57;6.20;;;11.50;86.10;10.60;99960.00;;;;4940295;28;20089;-78
2021/05/17 03:42:00;;;;;;;10.45;6.47;;;11.40;86.40;10.60;99956.00;;;;4953596;28;20086;-78
2021/05/17 03:44:27;;;;;;;9.88;5.97;;;11.40;86.50;10.60;99962.00;;;;4954435;28;20062;-78
2021/05/17 03:46:54;;;;;;;7.78;5.35;;;;;10.60;99960.00;;;;4940804;28;20046;-77
2021/05/17 03:49:20;;;;;;;8.90;5.80;;;11.40;86.30;10.60;99966.00;;;;4952371;28;20142;-77
2021/05/17 03:51:46;;;;;;;9.85;5.88;;;11.50;86.70;10.70;99965.00;;;;4937361;28;20050;-78
2021/05/17 03:54:12;;;;;;;9.55;5.07;;;;;10.60;99962.00;;;;4957244;28;20399;-77
2021/05/17 03:56:38;;;;;;;9.07;5.20;;;11.40;87.20;10.60;99962.00;;;;4957031;28;20051;-78
2021/05/17 03:59:04;;;;;;;7.18;4.90;;;11.40;87.00;10.60;99947.00;;;;4938157;28;20286;-78
2021/05/17 04:01:30;;;;;;;9.35;4.90;;;11.50;86.80;10.60;99961.00;;;;4948835;28;20055;-77
2021/05/17 04:03:57;;;;;;;8.23;4.45;;;;;10.60;99958.00;;;;4906957;29;20039;-78
2021/05/17 04:14:18;;;;;;;5.93;3.47;;;11.50;86.70;10.70;99970.00;;;;4936449;28;20070;-78
2021/05/17 04:16:44;;;;;;;5.47;3.55;;;11.50;86.40;10.70;99960.00;;;;4921081;28;20528;-78
2021/05/17 04:19:12;;;;;;;7.30;3.65;;;;;10.70;99961.00;;;;4930207;28;20047;-78
2021/05/17 04:21:39;;;;;;;5.53;4.13;;;11.60;87.30;10.70;99961.00;;;;4935331;28;20039;-78
2021/05/17 04:24:06;;;;;;;;;;;11.50;87.50;10.60;99972.00;;;;4930768;28;20051;-77
2021/05/17 04:26:31;;;;;;;5.85;3.50;;;11.50;86.80;10.70;99975.00;;;;4938753;28;20642;-78
2021/05/17 04:28:58;;;;;;;5.63;3.63;;;11.50;87.00;10.70;99974.00;;;;4935470;28;20051;-79
2021/05/17 04:31:24;;;;;;;5.97;3.50;;;11.50;87.20;10.70;99971.00;;;;4939492;28;20047;-78
2021/05/17 04:33:49;;;;;;;6.53;3.72;;;11.60;87.60;10.80;99976.00;;;;4910733;29;20053;-78
2021/05/17 04:36:17;;;;;;;5.72;3.70;;;11.50;87.10;10.80;99973.00;;;;4953367;28;20059;-78
2021/05/17 04:38:43;;;;;;;6.60;3.83;;;;;10.80;99975.00;;;;4936645;28;20126;-79
2021/05/17 04:41:10;;;;;;;6.67;3.87;;;11.60;86.80;10.80;99970.00;;;;4923585;28;20693;-79
2021/05/17 04:43:36;;;;;;;4.40;3.20;;;11.20;86.70;10.80;99970.00;;;;4937072;28;20310;-79
2021/05/17 04:46:02;;;;;;;7.80;3.58;;;11.60;86.70;10.80;99968.00;;;;4937932;28;20050;-78
2021/05/17 04:48:28;;;;;;;7.32;3.80;;;12.00;87.10;10.90;99970.00;;;;4935971;28;20040;-78
2021/05/17 04:50:54;;;;;;;8.48;4.18;;;14.30;88.30;10.90;99979.00;;;;4942204;28;20046;-78
2021/05/17 04:53:20;;;;;;;8.48;4.15;;;11.70;86.80;10.90;99985.00;;;;4959443;28;20043;-78
2021/05/17 04:55:46;;;;;;;6.50;4.30;;;11.70;87.20;10.90;99978.00;;;;4944968;28;20040;-78
2021/05/17 04:58:12;;;;;;;7.30;4.25;;;;;11.00;99982.00;;;;4939349;28;20106;-78
2021/05/17 05:00:38;;;;;;;6.40;4.13;;;;;11.00;99976.00;;;;4937964;28;20090;-79
2021/05/17 05:03:05;;;;;;;8.38;4.40;;;;;11.00;99986.00;;;;4937377;28;20047;-78
2021/05/17 05:05:31;;;;;;;6.63;4.55;;;11.80;86.70;11.00;99982.00;;;;4940383;28;21022;-78
2021/05/17 05:07:56;;;;;;;7.38;4.72;;;11.80;87.00;11.10;99987.00;;;;4937777;28;20138;-78
2021/05/17 05:10:23;;;;;;;6.90;4.38;;;;;11.10;99988.00;;;;4938079;28;20062;-78
2021/05/17 05:12:49;;;;;;;8.32;4.53;;;11.80;86.80;11.10;99982.00;;;;4934926;28;20054;-79
2021/05/17 05:15:15;;;;;;;8.57;4.85;;;11.90;87.30;11.20;99982.00;;;;4923159;29;20078;-78
2021/05/17 05:17:41;;;;;;;8.43;4.68;;;11.90;87.40;11.20;99981.00;;;;4937358;28;20137;-78
2021/05/17 05:20:08;;;;;;;9.18;4.40;;;12.00;86.70;11.20;99979.00;;;;4945985;28;20051;-78
2021/05/17 05:22:35;;;;;;;7.70;4.40;;;12.00;86.90;11.20;99988.00;;;;4943757;28;20927;-78
2021/05/17 05:25:01;;;;;;;10.20;4.97;;;12.00;86.80;11.20;99982.00;;;;4936690;28;20515;-79
2021/05/17 05:27:38;;;;;;;7.57;4.70;;;12.00;87.00;11.30;99986.00;;;;4946008;28;20043;-78
2021/05/17 05:32:37;;;;;;;9.38;4.60;;;;;11.30;99992.00;;;;4934864;28;20062;-78
2021/05/17 05:35:03;;;;;;;8.27;4.57;;;12.10;86.70;11.40;99985.00;;;;4924115;28;20441;-79
2021/05/17 05:37:30;;;;;;;8.55;4.70;;;;;11.40;99987.00;;;;4894176;29;20055;-78
2021/05/17 05:39:56;;;;;;;7.50;4.95;;;12.20;86.50;11.50;99979.00;;;;4935392;28;20109;-78
2021/05/17 05:42:24;;;;;;;7.90;4.68;;;12.20;86.40;11.50;99978.00;;;;4945985;28;20580;-78
2021/05/17 05:44:50;;;;;;;8.32;4.57;;;12.30;86.30;11.50;99976.00;;;;4956077;28;20130;-79
2021/05/17 05:47:17;;;;;;;8.50;4.43;;;12.30;86.10;11.60;99973.00;;;;4956863;28;20178;-79
2021/05/17 05:49:45;;;;;;;7.70;4.50;;;12.30;85.90;11.60;99982.00;;;;4954010;28;20035;-79
2021/05/17 05:52:12;;;;;;;11.43;4.53;;;;;11.60;99994.00;;;;4924278;28;20044;-79
2021/05/17 05:54:38;;;;;;;7.50;3.97;;;12.40;85.70;11.70;99991.00;;;;4927801;28;20644;-79
2021/05/17 05:57:07;;;;;;;10.43;3.80;;;12.40;85.70;11.60;99984.00;;;;4896265;28;20042;-79
2021/05/17 05:59:34;;;;;;;10.57;3.97;;;;;11.70;99987.00;;;;4961419;28;20039;-79
2021/05/17 06:02:00;;;;;;;6.67;4.00;;;12.40;85.90;11.60;99995.00;;;;4931950;28;20050;-79
2021/05/17 06:04:26;;;;;;;11.68;4.03;;;12.40;85.80;11.70;99987.00;;;;4941852;28;20701;-79
2021/05/17 06:06:52;;;;;;;9.00;3.97;;;12.40;85.60;11.70;99995.00;;;;4960352;28;20631;-78
2021/05/17 06:09:18;;;;;;;7.95;4.28;;;;;11.70;99993.00;;;;4940902;28;20032;-79
2021/05/17 06:11:45;;;;;;;9.30;5.03;;;12.40;86.10;11.70;99989.00;;;;4938955;28;20371;-79
2021/05/17 06:14:12;;;;;;;9.15;4.13;;;13.10;86.00;11.70;99985.00;;;;4940487;28;20070;-79
2021/05/17 06:16:38;;;;;;;6.65;3.35;;;12.50;85.50;11.70;100004.00;;;;4939761;28;20070;-79
2021/05/17 06:19:05;;;;;;;7.65;3.50;;;12.50;85.60;11.80;100002.00;;;;4944095;28;20066;-79
2021/05/17 06:21:32;;;;;;;9.10;3.08;;;12.50;85.30;11.80;99998.00;;;;4928578;28;20043;-79
2021/05/17 06:23:59;;;;;;;6.87;3.43;;;;;11.80;100003.00;;;;4961522;28;20059;-78
2021/05/17 06:26:26;;;;;;;;;;;12.60;85.10;11.80;100005.00;;;;4944023;28;20062;-78
2021/05/17 06:28:52;;;;;;;9.75;3.55;;;12.60;84.70;11.90;99994.00;;;;4954310;28;19941;-79
2021/05/17 06:31:19;;;;;;;10.52;4.20;;;12.70;84.60;11.90;100004.00;;;;4923176;28;20054;-78
2021/05/17 06:33:47;;;;;;;13.30;4.53;;;12.70;84.60;11.90;100005.00;;;;4942332;28;20151;-76
2021/05/17 06:36:15;;;;;;;9.23;3.90;;;;;12.00;100002.00;;;;4923643;28;20043;-79
2021/05/17 06:38:42;;;;;;;12.32;3.58;;;12.80;84.60;12.10;99979.00;;;;4954929;28;20140;-79
2021/05/17 06:41:09;;;;;;;9.50;3.92;;;12.80;84.10;12.10;100001.00;;;;4942096;28;20059;-78
2021/05/17 06:43:36;;;;;;;7.10;3.38;;;12.90;83.90;12.20;100000.00;;;;4945198;28;20119;-79
2021/05/17 06:46:09;;;;;;;10.27;4.32;;;12.90;84.30;12.20;100005.00;;;;4959688;28;20101;-79
2021/05/17 06:48:42;;;;;;;5.78;2.72;;;;;12.20;100003.00;;;;4961164;28;20097;-79
2021/05/17 06:51:17;;;;;;;10.27;3.10;;;13.00;83.80;12.20;100019.00;;;;4914037;28;20441;-78
2021/05/17 06:53:48;;;;;;;8.43;3.38;;;13.00;83.60;12.20;100012.00;;;;4975418;28;20545;-79
2021/05/17 06:56:21;;;;;;;7.65;3.00;;;13.00;83.40;12.30;99999.00;;;;4949572;28;20138;-80
2021/05/17 06:58:55;;;;;;;8.95;2.50;;;13.00;83.20;12.30;100025.00;;;;4954822;28;20054;-80
2021/05/17 07:01:23;;;;;;;6.10;3.00;;;13.00;83.60;12.30;100020.00;;;;4955580;28;20461;-78
2021/05/17 07:03:50;;;;;;;12.68;2.97;;;;;12.30;100022.00;;;;4940294;28;20061;-78
2021/05/17 07:06:30;;;;;;;6.60;2.83;;;13.10;83.10;12.40;100020.00;;;;4926784;29;20039;-78
2021/05/17 07:11:53;;;;;;;8.77;3.20;;;13.20;82.90;12.50;100020.00;;;;4936397;28;20047;-79
2021/05/17 07:14:19;;;;;;;8.63;2.80;;;;;12.50;100020.00;;;;4954162;28;20059;-78
2021/05/17 07:16:46;;;;;;;10.40;3.45;;;;;12.60;100022.00;;;;4936850;28;20043;-83
2021/05/17 07:19:12;;;;;;;8.03;3.00;;;;;12.60;100028.00;;;;4898253;28;20475;-78
2021/05/17 07:24:25;;;;;;;7.22;2.92;;;13.40;82.40;12.80;100021.00;;;;4935220;29;20299;-81
2021/05/17 07:26:52;;;;;;;11.45;3.50;;;;;12.80;100025.00;;;;4949901;28;20613;-80
2021/05/17 07:29:19;;;;;;;7.50;3.20;;;13.50;81.70;12.80;100024.00;;;;4921011;29;20037;-78
2021/05/17 07:31:47;;;;;;;6.40;3.05;;;13.50;81.40;12.80;100024.00;;;;4938366;28;20059;-78
2021/05/17 07:34:13;;;;;;;10.05;3.42;;;;;12.80;100034.00;;;;4934368;28;20047;-78
2021/05/17 07:36:39;;;;;;;8.57;2.95;;;13.50;80.70;12.80;100035.00;;;;4918138;29;20047;-78
2021/05/17 07:39:06;;;;;;;6.15;2.85;;;13.50;80.60;12.80;100028.00;;;;4934854;28;20035;-78
2021/05/17 07:41:32;;;;;;;;;;;13.50;80.10;12.70;100023.00;;;;4940870;28;20461;-78
2021/05/17 07:43:58;;;;;;;8.25;3.20;;;13.50;80.80;12.80;100024.00;;;;4953167;28;20009;-79
2021/05/17 07:46:24;;;;;;;6.88;3.28;;;13.50;80.70;12.80;100035.00;;;;4938026;28;20540;-79
2021/05/17 07:51:38;;;;;;;7.10;2.75;;;13.50;80.30;12.80;100027.00;;;;4947711;28;20470;-83
2021/05/17 07:54:05;;;;;;;6.03;3.05;;;13.50;79.90;12.80;100034.00;;;;4918550;29;20075;-78
2021/05/17 07:56:31;;;;;;;5.97;2.80;;;13.50;80.30;12.80;100030.00;;;;4932274;28;20129;-77
2021/05/17 07:58:57;;;;;;;3.78;2.40;;;13.60;80.30;12.90;100034.00;;;;4948857;28;20508;-78
2021/05/17 08:01:23;;;;;;;7.00;3.33;;;13.70;80.10;13.00;100029.00;;;;4946996;28;20038;-76
2021/05/17 08:03:50;;;;;;;7.65;3.22;;;13.80;80.10;13.20;100032.00;;;;4939249;28;20283;-80
2021/05/17 08:06:17;;;;;;;7.47;2.80;;;;;13.30;100039.00;;;;4950537;28;20040;-79
2021/05/17 08:08:44;;;;;;;5.15;2.60;;;14.10;80.20;13.50;100038.00;;;;4951567;28;20591;-78
2021/05/17 08:11:10;;;;;;;9.25;2.95;;;;;13.60;100042.00;;;;4948738;28;20147;-78
2021/05/17 08:13:38;;;;;;;4.80;2.47;;;14.20;78.50;13.60;100039.00;;;;4922900;29;20054;-78
2021/05/17 08:16:06;;;;;;;7.72;2.30;;;14.20;79.00;13.60;100047.00;;;;4935462;28;20655;-78
2021/05/17 08:18:32;;;;;;;6.15;2.75;;;14.30;79.10;13.60;100051.00;;;;4948641;28;20812;-78
2021/05/17 08:20:58;;;;;;;6.63;2.47;;;14.20;79.80;13.60;100042.00;;;;4935606;28;20031;-78
2021/05/17 08:23:24;;;;;;;4.83;2.80;;;14.20;80.40;13.50;100048.00;;;;4916817;28;20051;-79
2021/05/17 08:25:51;;;;;;;5.85;2.50;;;;;13.40;100059.00;;;;4956798;28;20047;-76
2021/05/17 08:28:17;;;;;;;6.27;3.10;;;14.10;80.60;13.30;100046.00;;;;4953237;28;20070;-78
2021/05/17 08:30:45;;;;;;;6.43;2.83;;;14.00;81.00;13.30;100054.00;;;;4938609;28;20043;-77
2021/05/17 08:33:12;;;;;;;7.75;3.10;;;14.00;81.30;13.20;100059.00;;;;4938294;28;20042;-78
2021/05/17 08:35:40;;;;;;;6.47;2.55;;;14.00;81.60;13.20;100059.00;;;;4951670;28;20050;-79
2021/05/17 08:38:07;;;;;;;7.32;3.13;;;;;13.30;100054.00;;;;4939102;28;20047;-78
2021/05/17 08:40:36;;;;;;;6.43;2.80;;;14.00;81.40;13.40;100042.00;;;;4937886;28;20054;-79
2021/05/17 08:43:03;;;;;;;6.97;3.05;;;;;13.50;100063.00;;;;4936197;28;20486;-79
2021/05/17 08:45:30;;;;;;;4.07;3.08;;;14.30;81.70;13.80;100053.00;;;;4933246;28;20078;-79
2021/05/17 08:47:56;;;;;;;;;;;14.50;81.30;14.00;100062.00;;;;4943145;28;20065;-78
2021/05/17 08:50:23;;;;;;;6.78;2.80;;;14.60;79.90;14.00;100062.00;;;;4940741;28;20353;-79
2021/05/17 08:52:50;;;;;;;6.78;2.80;;;14.60;80.10;14.10;100052.00;;;;4932985;28;20098;-78
2021/05/17 08:55:17;;;;;;;7.78;3.50;;;;;14.30;100060.00;;;;4938899;28;20062;-79
2021/05/17 08:57:44;;;;;;;;;;;15.00;79.80;14.50;100053.00;;;;4932752;28;20126;-78
2021/05/17 09:00:12;;;;;;;7.15;3.00;;;15.20;79.10;14.70;100049.00;;;;4941265;28;19926;-80
2021/05/17 09:02:39;;;;;;;8.38;3.40;;;;;14.90;100056.00;;;;4922259;28;21259;-79
2021/05/17 09:05:17;;;;;;;4.95;3.08;;;15.50;78.20;15.00;100043.00;;;;4921280;28;20046;-79
2021/05/17 09:07:57;;;;;;;5.35;2.35;;;15.50;77.30;15.00;100040.00;;;;4954306;28;20047;-79
2021/05/17 09:10:36;;;;;;;4.05;2.33;;;15.60;76.90;15.00;100046.00;;;;4912074;28;21249;-79
2021/05/17 09:13:09;;;;;;;5.40;2.40;;;;;14.90;100056.00;;;;4935810;28;20039;-79
2021/05/17 09:15:43;;;;;;;6.78;2.38;;;;;14.80;100055.00;;;;4936714;28;20543;-78
2021/05/17 09:18:14;;;;;;;2.85;1.85;;;15.30;75.50;14.70;100052.00;;;;4938161;28;20129;-78
2021/05/17 09:20:43;;;;;;;4.90;2.55;;;15.40;76.40;14.80;100045.00;;;;4923260;29;20058;-79
2021/05/17 09:23:11;;;;;;;4.03;2.45;;;15.50;76.50;15.00;100057.00;;;;4938657;28;20070;-78
2021/05/17 09:25:54;;;;;;;5.60;2.50;;;15.70;75.60;15.30;100058.00;;;;4964012;28;20122;-78
2021/05/17 09:28:24;;;;;;;3.97;2.28;;;;;15.50;100052.00;;;;4923859;28;20230;-77
2021/05/17 09:30:53;;;;;;;5.40;2.17;;;;;15.50;100062.00;;;;4940112;28;20051;-78
2021/05/17 09:33:21;;;;;;;5.00;2.47;;;16.00;73.60;15.40;100059.00;;;;4906389;29;20066;-79
2021/05/17 09:35:50;;;;;;;4.97;2.22;;;15.90;74.00;15.30;100062.00;;;;4943347;28;20417;-80
2021/05/17 09:38:25;;;;;;;5.07;2.10;;;15.90;74.20;15.30;100067.00;;;;4942933;28;20050;-79
2021/05/17 09:41:11;;;;;;;5.40;2.30;;;15.90;72.80;15.20;100066.00;;;;4949540;28;20054;-79
2021/05/17 09:43:38;;;;;;;4.68;2.03;;;15.80;72.50;15.20;100066.00;;;;4955884;28;20754;-78
2021/05/17 09:46:09;;;;;;;4.93;2.45;;;15.80;74.50;15.10;100069.00;;;;4950403;28;20038;-79
2021/05/17 09:48:46;;;;;;;4.57;2.50;;;15.70;74.20;15.10;100058.00;;;;4954956;28;20074;-78
2021/05/17 09:51:13;;;;;;;4.38;2.53;;;15.70;74.30;15.10;100062.00;;;;4970972;28;20051;-80
2021/05/17 09:53:44;;;;;;;5.43;3.08;;;15.80;74.10;15.20;100064.00;;;;4947271;28;20154;-79
2021/05/17 09:56:19;;;;;;;4.15;2.72;;;;;15.20;100051.00;;;;4936532;28;20039;-79
2021/05/17 09:58:48;;;;;;;3.83;2.70;;;15.80;72.90;15.40;100056.00;;;;4953648;28;20039;-79
2021/05/17 10:01:25;;;;;;;4.78;2.40;;;16.00;73.00;15.50;100062.00;;;;4953920;28;21014;-78
2021/05/17 10:04:04;;;;;;;5.95;2.70;;;16.10;73.40;15.60;100057.00;;;;4945237;28;20054;-79
2021/05/17 10:06:30;;;;;;;5.20;2.53;;;16.10;72.80;15.60;100065.00;;;;4930110;28;20083;-79
2021/05/17 10:08:57;;;;;;;6.15;2.55;;;16.10;73.30;15.60;100078.00;;;;4952331;28;20172;-79
2021/05/17 10:11:26;;;;;;;5.18;2.40;;;16.10;72.40;15.50;100057.00;;;;4955827;28;20126;-79
2021/05/17 10:13:53;;;;;;;3.20;1.55;;;16.00;72.40;15.40;100064.00;;;;4922260;29;20051;-79
2021/05/17 10:16:21;;;;;;;2.80;1.73;;;15.90;72.90;15.20;100080.00;;;;4925617;28;20169;-79
2021/05/17 10:18:48;;;;;;;3.20;2.20;;;;;15.10;100082.00;;;;4935580;28;20046;-78
2021/05/17 10:21:17;;;;;;;2.97;1.80;;;15.70;73.10;15.00;100074.00;;;;4923486;28;20071;-80
2021/05/17 10:23:46;;;;;;;3.50;2.08;;;15.70;73.80;15.10;100079.00;;;;4956103;28;20054;-80
2021/05/17 10:26:15;;;;;;;3.85;1.55;;;15.70;73.40;15.10;100085.00;;;;4954570;28;20058;-80
2021/05/17 10:28:48;;;;;;;4.88;2.30;;;15.80;73.50;15.10;100086.00;;;;4935131;28;20053;-80
2021/05/17 10:31:19;;;;;;;3.70;2.00;;;15.80;73.70;15.10;100092.00;;;;4924786;29;20059;-80
2021/05/17 10:34:05;;;;;;;3.88;1.70;;;15.90;73.50;15.20;100076.00;;;;4939219;28;20054;-80
2021/05/17 10:36:59;;;;;;;3.42;2.15;;;16.00;73.30;15.40;100076.00;;;;4936475;28;20047;-80
2021/05/17 10:39:37;;;;;;;4.43;2.15;;;16.10;73.50;15.50;100069.00;;;;4966899;28;20070;-80
2021/05/17 10:48:32;;;;;;;3.60;2.50;;;16.50;71.80;16.00;100070.00;;;;4933763;28;20043;-80
2021/05/17 10:51:19;;;;;;;5.80;3.03;;;16.60;71.70;15.90;100065.00;;;;4920479;28;20065;-80
2021/05/17 10:53:57;;;;;;;4.88;2.90;;;16.50;71.90;15.90;100063.00;;;;4923953;28;20065;-79
2021/05/17 10:56:39;;;;;;;5.43;2.92;;;16.40;71.80;15.60;100075.00;;;;4936628;28;20368;-79
2021/05/17 11:01:59;;;;;;;10.05;4.20;;;16.10;73.40;15.30;100082.00;;;;4932483;29;20475;-80
2021/05/17 11:04:37;;;;;;;7.55;3.63;;;16.00;74.30;15.10;100085.00;;;;4937641;28;20059;-80
2021/05/17 11:07:24;;;;;;;6.07;3.28;;;15.80;74.70;14.90;100081.00;;;;4932486;28;20051;-80
2021/05/17 11:10:03;;;;;;;5.25;2.90;;;15.70;75.00;14.90;100094.00;;;;4930168;28;20059;-80
2021/05/17 11:12:29;;;;;;;7.78;4.43;;;15.60;75.80;14.90;100101.00;;;;4935592;28;20055;-80
2021/05/17 11:15:09;;;;;;;5.85;3.83;;;15.70;76.00;14.90;100094.00;;;;4932148;28;20405;-79
2021/05/17 11:17:54;;;;;;;4.15;3.30;;;15.90;76.70;15.20;100083.00;;;;4923168;28;20048;-80
2021/05/17 11:23:08;;;;;;;5.22;2.75;;;;;15.90;100087.00;;;;4936802;28;20063;-83
2021/05/17 11:25:53;;;;;;;3.38;2.47;;;;;16.20;100089.00;;;;4938803;28;20043;-79
2021/05/17 11:28:47;;;;;;;3.65;2.60;;;16.80;74.60;16.40;100096.00;;;;4945540;28;20042;-78
2021/05/17 11:31:23;;;;;;;2.80;2.28;;;16.90;73.80;16.40;100103.00;;;;4953979;28;20055;-79
2021/05/17 11:34:01;;;;;;;4.45;2.60;;;16.80;72.60;16.20;100106.00;;;;4958865;28;20082;-79
2021/05/17 11:36:46;;;;;;;3.65;2.10;;;17.10;73.00;15.90;100100.00;;;;4957546;28;20070;-80
2021/05/17 11:39:21;;;;;;;3.38;2.72;;;16.50;73.10;15.80;100115.00;;;;4940373;28;20059;-80
2021/05/17 11:42:03;;;;;;;3.78;3.10;;;16.40;74.10;15.60;100108.00;;;;4943255;28;20047;-79
2021/05/17 11:47:21;;;;;;;1.92;1.70;;;16.20;73.40;15.50;100123.00;;;;4949767;28;20093;-80
2021/05/17 11:49:48;;;;;;;2.72;1.70;;;16.10;72.50;15.30;100133.00;;;;4935925;28;20054;-80